Georgetown, Connecticut
Current Conditions -  °F | °C
As of 12:53 PM on Saturday 25 Oct 2014 (Local Time) from KDXR Reporting Station
Clear Clear  
Wind Chill: 62°   Ceiling: Unl
Heat Index: 62°   Visibility: 10mi
Dew Point: 41°   Wind: 10mph
Humidity: 46%   Direction: 290°WNW
Pressure: 29.76"   Gusts: NA
Location:  41.26°N, 73.43°W
Report Text: KDXR 251653Z 29009KT 240V360 10SM CLR 17/05 A2976 RMK AO2 SLP077 T01670050
Loading
Personal Weather Stations






























Interactive Weather Map
Tropical Storm Tracking
New forecast layout! Learn more

10-Day Weather Forecast

Advertisements
Track Severe Weather on mobile